sensor_id;sensor_type;location;lat;lon;timestamp;pressure;altitude;pressure_sealevel;temperature;humidity
34586;BME280;20816;50.950;11.108;2022-10-16T00:01:08;98114.59;;;15.35;100.00
34586;BME280;20816;50.950;11.108;2022-10-16T00:03:35;98110.63;;;15.27;100.00
34586;BME280;20816;50.950;11.108;2022-10-16T00:06:02;98107.88;;;15.28;100.00
34586;BME280;20816;50.950;11.108;2022-10-16T00:08:29;98097.28;;;15.28;100.00
34586;BME280;20816;50.950;11.108;2022-10-16T00:11:04;98096.34;;;15.29;100.00
34586;BME280;20816;50.950;11.108;2022-10-16T00:13:32;98086.94;;;15.24;100.00
34586;BME280;20816;50.950;11.108;2022-10-16T00:16:00;98078.44;;;15.17;100.00
34586;BME280;20816;50.950;11.108;2022-10-16T00:18:27;98083.84;;;15.14;100.00
34586;BME280;20816;50.950;11.108;2022-10-16T00:20:55;98085.97;;;15.07;100.00
34586;BME280;20816;50.950;11.108;2022-10-16T00:23:22;98094.13;;;15.03;100.00
34586;BME280;20816;50.950;11.108;2022-10-16T00:25:56;98086.63;;;14.94;100.00
34586;BME280;20816;50.950;11.108;2022-10-16T00:28:23;98086.47;;;14.97;100.00
34586;BME280;20816;50.950;11.108;2022-10-16T00:30:50;98086.63;;;14.94;100.00
34586;BME280;20816;50.950;11.108;2022-10-16T00:33:17;98090.50;;;14.86;100.00
34586;BME280;20816;50.950;11.108;2022-10-16T00:35:44;98099.78;;;14.76;100.00
34586;BME280;20816;50.950;11.108;2022-10-16T00:38:10;98100.50;;;14.80;100.00
34586;BME280;20816;50.950;11.108;2022-10-16T00:40:37;98102.94;;;14.84;100.00
34586;BME280;20816;50.950;11.108;2022-10-16T00:43:12;98108.22;;;14.84;100.00
34586;BME280;20816;50.950;11.108;2022-10-16T00:45:39;98113.94;;;14.75;100.00
34586;BME280;20816;50.950;11.108;2022-10-16T00:48:11;98117.09;;;14.83;100.00
34586;BME280;20816;50.950;11.108;2022-10-16T00:50:40;98119.09;;;14.78;100.00
34586;BME280;20816;50.950;11.108;2022-10-16T00:53:10;98120.97;;;14.76;100.00
34586;BME280;20816;50.950;11.108;2022-10-16T00:55:37;98114.81;;;14.76;100.00
34586;BME280;20816;50.950;11.108;2022-10-16T00:58:07;98133.09;;;14.80;100.00
34586;BME280;20816;50.950;11.108;2022-10-16T01:00:34;98126.00;;;14.81;100.00
34586;BME280;20816;50.950;11.108;2022-10-16T01:03:02;98118.94;;;14.81;100.00
34586;BME280;20816;50.950;11.108;2022-10-16T01:05:38;98112.59;;;14.85;100.00
34586;BME280;20816;50.950;11.108;2022-10-16T01:08:11;98113.53;;;14.84;100.00
34586;BME280;20816;50.950;11.108;2022-10-16T01:11:00;98115.94;;;14.89;100.00
34586;BME280;20816;50.950;11.108;2022-10-16T01:13:33;98112.31;;;14.92;100.00
34586;BME280;20816;50.950;11.108;2022-10-16T01:16:12;98104.66;;;14.85;100.00
34586;BME280;20816;50.950;11.108;2022-10-16T01:18:45;98103.63;;;14.88;100.00
34586;BME280;20816;50.950;11.108;2022-10-16T01:21:27;98096.06;;;14.80;100.00
34586;BME280;20816;50.950;11.108;2022-10-16T01:29:42;98102.91;;;14.66;100.00
34586;BME280;20816;50.950;11.108;2022-10-16T01:32:37;98108.78;;;14.72;100.00
34586;BME280;20816;50.950;11.108;2022-10-16T01:35:21;98105.28;;;14.72;100.00
34586;BME280;20816;50.950;11.108;2022-10-16T01:38:03;98102.53;;;14.75;100.00
34586;BME280;20816;50.950;11.108;2022-10-16T01:40:34;98103.22;;;14.78;100.00
34586;BME280;20816;50.950;11.108;2022-10-16T01:43:06;98113.81;;;14.78;100.00
34586;BME280;20816;50.950;11.108;2022-10-16T01:45:36;98110.50;;;14.73;100.00
34586;BME280;20816;50.950;11.108;2022-10-16T01:48:04;98121.06;;;14.73;100.00
34586;BME280;20816;50.950;11.108;2022-10-16T01:50:37;98121.75;;;14.78;100.00
34586;BME280;20816;50.950;11.108;2022-10-16T01:53:07;98128.31;;;14.89;100.00
34586;BME280;20816;50.950;11.108;2022-10-16T01:55:40;98135.88;;;14.96;100.00
34586;BME280;20816;50.950;11.108;2022-10-16T01:58:13;98145.00;;;14.91;100.00
34586;BME280;20816;50.950;11.108;2022-10-16T02:00:43;98136.97;;;14.92;100.00
34586;BME280;20816;50.950;11.108;2022-10-16T02:03:13;98144.69;;;14.97;100.00
34586;BME280;20816;50.950;11.108;2022-10-16T02:05:45;98141.59;;;15.06;100.00
34586;BME280;20816;50.950;11.108;2022-10-16T02:08:12;98152.63;;;14.97;100.00
34586;BME280;20816;50.950;11.108;2022-10-16T02:10:39;98155.00;;;15.03;100.00
34586;BME280;20816;50.950;11.108;2022-10-16T02:13:10;98145.84;;;14.91;100.00
34586;BME280;20816;50.950;11.108;2022-10-16T02:15:37;98147.25;;;14.79;100.00
34586;BME280;20816;50.950;11.108;2022-10-16T02:18:05;98148.47;;;14.72;100.00
34586;BME280;20816;50.950;11.108;2022-10-16T02:20:38;98143.84;;;14.77;100.00
34586;BME280;20816;50.950;11.108;2022-10-16T02:23:08;98140.75;;;14.68;100.00
34586;BME280;20816;50.950;11.108;2022-10-16T02:25:40;98142.31;;;14.72;100.00
34586;BME280;20816;50.950;11.108;2022-10-16T02:28:16;98146.63;;;14.74;100.00
34586;BME280;20816;50.950;11.108;2022-10-16T02:30:47;98142.97;;;14.77;100.00
34586;BME280;20816;50.950;11.108;2022-10-16T02:33:15;98145.69;;;14.75;100.00
34586;BME280;20816;50.950;11.108;2022-10-16T02:35:44;98139.56;;;14.75;100.00
34586;BME280;20816;50.950;11.108;2022-10-16T02:38:14;98148.97;;;14.80;100.00
34586;BME280;20816;50.950;11.108;2022-10-16T02:40:41;98146.47;;;14.77;100.00
34586;BME280;20816;50.950;11.108;2022-10-16T02:43:09;98150.69;;;14.81;100.00
34586;BME280;20816;50.950;11.108;2022-10-16T02:45:36;98155.72;;;14.88;100.00
34586;BME280;20816;50.950;11.108;2022-10-16T02:48:03;98160.72;;;14.94;100.00
34586;BME280;20816;50.950;11.108;2022-10-16T02:50:29;98162.94;;;15.03;100.00
34586;BME280;20816;50.950;11.108;2022-10-16T02:52:56;98160.72;;;14.94;100.00
34586;BME280;20816;50.950;11.108;2022-10-16T02:55:22;98163.00;;;15.01;100.00
34586;BME280;20816;50.950;11.108;2022-10-16T02:57:49;98163.59;;;15.08;100.00
34586;BME280;20816;50.950;11.108;2022-10-16T03:00:16;98164.72;;;15.21;100.00
34586;BME280;20816;50.950;11.108;2022-10-16T03:02:43;98161.44;;;15.16;100.00
34586;BME280;20816;50.950;11.108;2022-10-16T03:05:10;98157.84;;;15.17;100.00
34586;BME280;20816;50.950;11.108;2022-10-16T03:07:37;98169.81;;;15.26;100.00
34586;BME280;20816;50.950;11.108;2022-10-16T03:10:04;98171.88;;;15.19;100.00
34586;BME280;20816;50.950;11.108;2022-10-16T03:12:30;98170.16;;;15.18;100.00
34586;BME280;20816;50.950;11.108;2022-10-16T03:14:57;98172.59;;;15.04;100.00
34586;BME280;20816;50.950;11.108;2022-10-16T03:17:24;98162.28;;;14.98;100.00
34586;BME280;20816;50.950;11.108;2022-10-16T03:19:52;98164.03;;;14.99;100.00
34586;BME280;20816;50.950;11.108;2022-10-16T03:22:18;98151.84;;;14.95;100.00
34586;BME280;20816;50.950;11.108;2022-10-16T03:24:45;98149.03;;;14.98;100.00
34586;BME280;20816;50.950;11.108;2022-10-16T03:27:11;98157.72;;;15.01;100.00
34586;BME280;20816;50.950;11.108;2022-10-16T03:29:37;98143.72;;;14.99;100.00
34586;BME280;20816;50.950;11.108;2022-10-16T03:32:04;98150.22;;;14.92;100.00
34586;BME280;20816;50.950;11.108;2022-10-16T03:34:31;98151.34;;;14.86;100.00
34586;BME280;20816;50.950;11.108;2022-10-16T03:36:57;98153.34;;;14.81;100.00
34586;BME280;20816;50.950;11.108;2022-10-16T03:39:24;98161.28;;;14.81;100.00
34586;BME280;20816;50.950;11.108;2022-10-16T03:41:50;98168.84;;;14.70;100.00
34586;BME280;20816;50.950;11.108;2022-10-16T03:44:17;98165.34;;;14.70;100.00
34586;BME280;20816;50.950;11.108;2022-10-16T03:46:43;98163.41;;;14.73;100.00
34586;BME280;20816;50.950;11.108;2022-10-16T03:49:10;98174.91;;;14.72;100.00
34586;BME280;20816;50.950;11.108;2022-10-16T03:51:37;98166.88;;;14.75;100.00
34586;BME280;20816;50.950;11.108;2022-10-16T03:54:03;98179.28;;;14.73;100.00
34586;BME280;20816;50.950;11.108;2022-10-16T03:56:30;98162.72;;;14.89;100.00
34586;BME280;20816;50.950;11.108;2022-10-16T03:58:56;98177.03;;;14.84;100.00
34586;BME280;20816;50.950;11.108;2022-10-16T04:01:23;98175.31;;;14.83;100.00
34586;BME280;20816;50.950;11.108;2022-10-16T04:03:49;98176.38;;;14.79;100.00
34586;BME280;20816;50.950;11.108;2022-10-16T04:06:16;98170.94;;;14.82;100.00
34586;BME280;20816;50.950;11.108;2022-10-16T04:08:43;98166.00;;;14.75;100.00
34586;BME280;20816;50.950;11.108;2022-10-16T04:11:10;98181.47;;;14.84;100.00
34586;BME280;20816;50.950;11.108;2022-10-16T04:13:37;98193.16;;;14.78;100.00
34586;BME280;20816;50.950;11.108;2022-10-16T04:16:04;98190.88;;;14.71;100.00
34586;BME280;20816;50.950;11.108;2022-10-16T04:18:30;98201.59;;;14.68;100.00
34586;BME280;20816;50.950;11.108;2022-10-16T04:21:02;98208.00;;;14.62;100.00
34586;BME280;20816;50.950;11.108;2022-10-16T04:23:29;98195.06;;;14.56;100.00
34586;BME280;20816;50.950;11.108;2022-10-16T04:25:56;98197.78;;;14.54;100.00
34586;BME280;20816;50.950;11.108;2022-10-16T04:28:22;98199.19;;;14.41;100.00
34586;BME280;20816;50.950;11.108;2022-10-16T04:30:49;98202.06;;;14.37;100.00
34586;BME280;20816;50.950;11.108;2022-10-16T04:33:15;98207.75;;;14.27;100.00
34586;BME280;20816;50.950;11.108;2022-10-16T04:35:42;98209.97;;;14.16;100.00
34586;BME280;20816;50.950;11.108;2022-10-16T04:38:08;98200.53;;;14.11;100.00
34586;BME280;20816;50.950;11.108;2022-10-16T04:40:35;98221.78;;;14.08;100.00
34586;BME280;20816;50.950;11.108;2022-10-16T04:43:04;98215.00;;;14.02;100.00
34586;BME280;20816;50.950;11.108;2022-10-16T04:45:31;98228.31;;;13.99;100.00
34586;BME280;20816;50.950;11.108;2022-10-16T04:47:58;98239.09;;;13.94;100.00
34586;BME280;20816;50.950;11.108;2022-10-16T04:50:25;98246.19;;;13.92;100.00
34586;BME280;20816;50.950;11.108;2022-10-16T04:52:52;98249.84;;;13.90;100.00
34586;BME280;20816;50.950;11.108;2022-10-16T04:55:18;98256.03;;;13.89;100.00
34586;BME280;20816;50.950;11.108;2022-10-16T04:57:45;98241.75;;;13.94;100.00
34586;BME280;20816;50.950;11.108;2022-10-16T05:00:12;98242.47;;;13.98;100.00
34586;BME280;20816;50.950;11.108;2022-10-16T05:02:39;98240.09;;;14.12;100.00
34586;BME280;20816;50.950;11.108;2022-10-16T05:05:05;98253.06;;;14.18;100.00
34586;BME280;20816;50.950;11.108;2022-10-16T05:07:32;98252.25;;;14.16;100.00
34586;BME280;20816;50.950;11.108;2022-10-16T05:09:59;98264.50;;;14.19;100.00
34586;BME280;20816;50.950;11.108;2022-10-16T05:12:25;98262.72;;;14.19;100.00
34586;BME280;20816;50.950;11.108;2022-10-16T05:14:52;98262.59;;;14.22;100.00
34586;BME280;20816;50.950;11.108;2022-10-16T05:17:18;98273.03;;;14.25;100.00
34586;BME280;20816;50.950;11.108;2022-10-16T05:19:45;98271.03;;;14.30;100.00
34586;BME280;20816;50.950;11.108;2022-10-16T05:22:11;98274.63;;;14.29;100.00
34586;BME280;20816;50.950;11.108;2022-10-16T05:24:38;98272.75;;;14.31;100.00
34586;BME280;20816;50.950;11.108;2022-10-16T05:27:04;98280.75;;;14.30;100.00
34586;BME280;20816;50.950;11.108;2022-10-16T05:29:31;98284.34;;;14.29;100.00
34586;BME280;20816;50.950;11.108;2022-10-16T05:31:58;98278.19;;;14.28;100.00
34586;BME280;20816;50.950;11.108;2022-10-16T05:34:24;98264.97;;;14.28;100.00
34586;BME280;20816;50.950;11.108;2022-10-16T05:36:51;98278.13;;;14.30;100.00
34586;BME280;20816;50.950;11.108;2022-10-16T05:39:17;98279.91;;;14.29;100.00
34586;BME280;20816;50.950;11.108;2022-10-16T05:41:44;98295.91;;;14.26;100.00
34586;BME280;20816;50.950;11.108;2022-10-16T05:44:11;98302.97;;;14.26;100.00
34586;BME280;20816;50.950;11.108;2022-10-16T05:46:37;98297.47;;;14.30;100.00
34586;BME280;20816;50.950;11.108;2022-10-16T05:49:04;98294.28;;;14.44;100.00
34586;BME280;20816;50.950;11.108;2022-10-16T05:51:30;98303.31;;;14.61;100.00
34586;BME280;20816;50.950;11.108;2022-10-16T05:53:57;98308.38;;;14.65;100.00
34586;BME280;20816;50.950;11.108;2022-10-16T05:56:23;98315.53;;;14.63;100.00
34586;BME280;20816;50.950;11.108;2022-10-16T05:58:50;98315.47;;;14.65;100.00
34586;BME280;20816;50.950;11.108;2022-10-16T06:01:18;98322.22;;;14.72;100.00
34586;BME280;20816;50.950;11.108;2022-10-16T06:03:45;98313.63;;;14.67;100.00
34586;BME280;20816;50.950;11.108;2022-10-16T06:06:17;98293.38;;;14.66;100.00
34586;BME280;20816;50.950;11.108;2022-10-16T06:08:44;98292.19;;;14.73;100.00
34586;BME280;20816;50.950;11.108;2022-10-16T06:11:17;98276.66;;;14.85;100.00
34586;BME280;20816;50.950;11.108;2022-10-16T06:13:44;98272.13;;;14.88;100.00
34586;BME280;20816;50.950;11.108;2022-10-16T06:16:13;98261.13;;;14.97;100.00
34586;BME280;20816;50.950;11.108;2022-10-16T06:18:39;98264.53;;;15.00;100.00
34586;BME280;20816;50.950;11.108;2022-10-16T06:21:08;98267.09;;;15.02;100.00
34586;BME280;20816;50.950;11.108;2022-10-16T06:23:36;98257.22;;;15.05;100.00
34586;BME280;20816;50.950;11.108;2022-10-16T06:26:07;98265.66;;;15.13;100.00
34586;BME280;20816;50.950;11.108;2022-10-16T06:28:34;98264.59;;;15.18;100.00
34586;BME280;20816;50.950;11.108;2022-10-16T06:31:02;98261.63;;;15.25;100.00
34586;BME280;20816;50.950;11.108;2022-10-16T06:33:34;98266.25;;;15.20;100.00
34586;BME280;20816;50.950;11.108;2022-10-16T06:36:03;98265.63;;;15.15;100.00
34586;BME280;20816;50.950;11.108;2022-10-16T06:38:30;98268.13;;;15.18;100.00
34586;BME280;20816;50.950;11.108;2022-10-16T06:40:57;98271.63;;;15.19;100.00
34586;BME280;20816;50.950;11.108;2022-10-16T06:43:25;98291.94;;;15.18;100.00
34586;BME280;20816;50.950;11.108;2022-10-16T06:45:56;98287.34;;;15.22;100.00
34586;BME280;20816;50.950;11.108;2022-10-16T06:48:23;98284.78;;;15.20;100.00
34586;BME280;20816;50.950;11.108;2022-10-16T06:51:04;98292.19;;;15.32;100.00
34586;BME280;20816;50.950;11.108;2022-10-16T06:53:33;98287.94;;;15.28;100.00
34586;BME280;20816;50.950;11.108;2022-10-16T06:58:41;98302.94;;;15.67;100.00
34586;BME280;20816;50.950;11.108;2022-10-16T07:01:09;98293.63;;;15.77;100.00
34586;BME280;20816;50.950;11.108;2022-10-16T07:03:43;98297.84;;;15.81;100.00
34586;BME280;20816;50.950;11.108;2022-10-16T07:06:12;98306.88;;;15.77;100.00
34586;BME280;20816;50.950;11.108;2022-10-16T07:08:40;98316.75;;;15.92;100.00
34586;BME280;20816;50.950;11.108;2022-10-16T07:11:13;98315.44;;;16.01;100.00
34586;BME280;20816;50.950;11.108;2022-10-16T07:13:41;98321.69;;;16.00;100.00
34586;BME280;20816;50.950;11.108;2022-10-16T07:16:11;98331.84;;;16.09;100.00
34586;BME280;20816;50.950;11.108;2022-10-16T07:18:38;98323.19;;;16.06;100.00
34586;BME280;20816;50.950;11.108;2022-10-16T07:21:11;98312.72;;;16.03;100.00
34586;BME280;20816;50.950;11.108;2022-10-16T07:23:39;98319.88;;;16.01;100.00
34586;BME280;20816;50.950;11.108;2022-10-16T07:26:06;98316.00;;;16.08;100.00
34586;BME280;20816;50.950;11.108;2022-10-16T07:28:34;98313.38;;;16.25;100.00
34586;BME280;20816;50.950;11.108;2022-10-16T07:31:09;98310.38;;;16.33;100.00
34586;BME280;20816;50.950;11.108;2022-10-16T07:33:38;98319.63;;;16.24;100.00
34586;BME280;20816;50.950;11.108;2022-10-16T07:36:05;98326.56;;;16.26;100.00
34586;BME280;20816;50.950;11.108;2022-10-16T07:38:32;98322.94;;;16.46;100.00
34586;BME280;20816;50.950;11.108;2022-10-16T07:41:00;98329.16;;;16.81;100.00
34586;BME280;20816;50.950;11.108;2022-10-16T07:43:27;98309.50;;;17.01;100.00
34586;BME280;20816;50.950;11.108;2022-10-16T07:45:54;98314.16;;;17.31;100.00
34586;BME280;20816;50.950;11.108;2022-10-16T07:48:26;98306.50;;;17.25;100.00
34586;BME280;20816;50.950;11.108;2022-10-16T07:50:57;98317.94;;;17.09;100.00
34586;BME280;20816;50.950;11.108;2022-10-16T07:53:23;98314.22;;;16.96;100.00
34586;BME280;20816;50.950;11.108;2022-10-16T07:56:02;98334.97;;;17.05;100.00
34586;BME280;20816;50.950;11.108;2022-10-16T07:58:29;98327.56;;;17.12;100.00
34586;BME280;20816;50.950;11.108;2022-10-16T08:00:56;98339.63;;;17.35;100.00
34586;BME280;20816;50.950;11.108;2022-10-16T08:03:24;98321.53;;;17.75;100.00
34586;BME280;20816;50.950;11.108;2022-10-16T08:05:51;98348.03;;;17.59;100.00
34586;BME280;20816;50.950;11.108;2022-10-16T08:08:18;98350.06;;;17.38;100.00
34586;BME280;20816;50.950;11.108;2022-10-16T08:10:45;98362.72;;;17.33;100.00
34586;BME280;20816;50.950;11.108;2022-10-16T08:13:12;98356.03;;;17.26;100.00
34586;BME280;20816;50.950;11.108;2022-10-16T08:15:45;98363.59;;;17.33;100.00
34586;BME280;20816;50.950;11.108;2022-10-16T08:18:13;98372.88;;;17.42;100.00
34586;BME280;20816;50.950;11.108;2022-10-16T08:20:41;98385.09;;;17.79;100.00
34586;BME280;20816;50.950;11.108;2022-10-16T08:23:12;98394.03;;;18.10;100.00
34586;BME280;20816;50.950;11.108;2022-10-16T08:25:40;98408.88;;;18.30;100.00
34586;BME280;20816;50.950;11.108;2022-10-16T08:28:09;98422.47;;;18.41;100.00
34586;BME280;20816;50.950;11.108;2022-10-16T08:30:36;98417.47;;;18.66;100.00
34586;BME280;20816;50.950;11.108;2022-10-16T08:33:03;98415.22;;;18.74;100.00
34586;BME280;20816;50.950;11.108;2022-10-16T08:35:30;98423.38;;;19.17;100.00
34586;BME280;20816;50.950;11.108;2022-10-16T08:37:56;98423.88;;;19.97;100.00
34586;BME280;20816;50.950;11.108;2022-10-16T08:40:29;98408.97;;;19.78;100.00
34586;BME280;20816;50.950;11.108;2022-10-16T08:48:57;98423.94;;;19.67;100.00
34586;BME280;20816;50.950;11.108;2022-10-16T08:51:34;98409.13;;;20.32;98.59
34586;BME280;20816;50.950;11.108;2022-10-16T08:54:31;98415.56;;;20.57;95.71
34586;BME280;20816;50.950;11.108;2022-10-16T08:57:09;98421.06;;;20.95;93.75
34586;BME280;20816;50.950;11.108;2022-10-16T08:59:37;98424.53;;;21.22;91.76
34586;BME280;20816;50.950;11.108;2022-10-16T09:03:21;98429.44;;;21.16;91.77
34586;BME280;20816;50.950;11.108;2022-10-16T09:05:34;98424.72;;;21.07;91.85
34586;BME280;20816;50.950;11.108;2022-10-16T09:08:19;98438.75;;;21.10;92.71
34586;BME280;20816;50.950;11.108;2022-10-16T09:11:01;98436.44;;;21.31;92.08
34586;BME280;20816;50.950;11.108;2022-10-16T09:21:26;98465.88;;;20.07;97.08
34586;BME280;20816;50.950;11.108;2022-10-16T09:23:58;98466.53;;;19.97;97.49
34586;BME280;20816;50.950;11.108;2022-10-16T09:26:26;98460.72;;;19.76;98.24
34586;BME280;20816;50.950;11.108;2022-10-16T09:28:53;98454.13;;;19.67;97.96
34586;BME280;20816;50.950;11.108;2022-10-16T09:31:21;98449.09;;;19.77;98.35
34586;BME280;20816;50.950;11.108;2022-10-16T09:33:58;98464.25;;;19.91;97.00
34586;BME280;20816;50.950;11.108;2022-10-16T09:36:27;98464.84;;;19.96;97.52
34586;BME280;20816;50.950;11.108;2022-10-16T09:39:06;98454.97;;;20.25;96.98
34586;BME280;20816;50.950;11.108;2022-10-16T09:41:38;98469.34;;;20.65;95.03
34586;BME280;20816;50.950;11.108;2022-10-16T09:46:42;98459.25;;;20.56;94.23
34586;BME280;20816;50.950;11.108;2022-10-16T09:49:22;98467.41;;;20.67;94.61
34586;BME280;20816;50.950;11.108;2022-10-16T09:51:50;98478.41;;;20.89;92.52
34586;BME280;20816;50.950;11.108;2022-10-16T09:54:19;98489.09;;;20.89;93.12
34586;BME280;20816;50.950;11.108;2022-10-16T09:56:47;98476.94;;;20.85;92.89
34586;BME280;20816;50.950;11.108;2022-10-16T09:59:19;98481.38;;;20.85;93.86
34586;BME280;20816;50.950;11.108;2022-10-16T10:01:52;98486.78;;;20.97;92.92
34586;BME280;20816;50.950;11.108;2022-10-16T10:04:20;98495.56;;;20.99;91.91
34586;BME280;20816;50.950;11.108;2022-10-16T10:06:52;98491.44;;;20.81;93.63
34586;BME280;20816;50.950;11.108;2022-10-16T10:09:22;98501.19;;;20.68;92.40
34586;BME280;20816;50.950;11.108;2022-10-16T10:11:51;98504.06;;;20.51;93.43
34586;BME280;20816;50.950;11.108;2022-10-16T10:14:23;98514.56;;;20.39;94.11
34586;BME280;20816;50.950;11.108;2022-10-16T10:16:52;98506.19;;;20.31;95.58
34586;BME280;20816;50.950;11.108;2022-10-16T10:19:21;98501.03;;;20.14;95.56
34586;BME280;20816;50.950;11.108;2022-10-16T10:21:51;98494.00;;;20.13;95.83
34586;BME280;20816;50.950;11.108;2022-10-16T10:24:18;98494.66;;;20.31;95.04
34586;BME280;20816;50.950;11.108;2022-10-16T10:27:03;98503.31;;;20.49;94.54
34586;BME280;20816;50.950;11.108;2022-10-16T10:29:48;98501.22;;;20.25;94.40
34586;BME280;20816;50.950;11.108;2022-10-16T10:32:39;98499.50;;;20.38;94.99
34586;BME280;20816;50.950;11.108;2022-10-16T10:37:53;98495.41;;;20.88;91.27
34586;BME280;20816;50.950;11.108;2022-10-16T10:40:30;98503.69;;;20.57;92.68
34586;BME280;20816;50.950;11.108;2022-10-16T10:43:18;98510.75;;;20.58;93.17
34586;BME280;20816;50.950;11.108;2022-10-16T10:45:48;98516.38;;;20.39;94.75
34586;BME280;20816;50.950;11.108;2022-10-16T10:48:43;98517.81;;;20.30;93.91
34586;BME280;20816;50.950;11.108;2022-10-16T10:51:22;98522.94;;;20.19;96.10
34586;BME280;20816;50.950;11.108;2022-10-16T11:05:33;98536.03;;;19.19;100.00
34586;BME280;20816;50.950;11.108;2022-10-16T11:08:22;98546.47;;;19.08;100.00
34586;BME280;20816;50.950;11.108;2022-10-16T11:11:04;98545.78;;;18.89;100.00
34586;BME280;20816;50.950;11.108;2022-10-16T11:13:44;98547.25;;;18.79;100.00
34586;BME280;20816;50.950;11.108;2022-10-16T11:21:54;98543.03;;;19.06;100.00
34586;BME280;20816;50.950;11.108;2022-10-16T11:24:41;98540.00;;;19.12;100.00
34586;BME280;20816;50.950;11.108;2022-10-16T11:27:14;98545.59;;;19.23;100.00
34586;BME280;20816;50.950;11.108;2022-10-16T11:29:51;98551.97;;;19.51;100.00
34586;BME280;20816;50.950;11.108;2022-10-16T11:32:24;98558.53;;;19.75;100.00
34586;BME280;20816;50.950;11.108;2022-10-16T11:35:00;98558.53;;;19.75;100.00
34586;BME280;20816;50.950;11.108;2022-10-16T11:37:41;98557.63;;;19.60;100.00
34586;BME280;20816;50.950;11.108;2022-10-16T11:40:23;98565.63;;;19.45;100.00
34586;BME280;20816;50.950;11.108;2022-10-16T11:42:59;98560.72;;;19.53;100.00
34586;BME280;20816;50.950;11.108;2022-10-16T11:45:42;98565.97;;;19.54;100.00
34586;BME280;20816;50.950;11.108;2022-10-16T11:51:02;98569.97;;;19.77;100.00
34586;BME280;20816;50.950;11.108;2022-10-16T11:56:07;98556.81;;;19.28;100.00
34586;BME280;20816;50.950;11.108;2022-10-16T11:58:41;98554.41;;;19.40;100.00
34586;BME280;20816;50.950;11.108;2022-10-16T12:04:11;98559.34;;;19.16;100.00
34586;BME280;20816;50.950;11.108;2022-10-16T12:06:44;98574.63;;;19.12;100.00
34586;BME280;20816;50.950;11.108;2022-10-16T12:09:21;98574.81;;;19.09;100.00
34586;BME280;20816;50.950;11.108;2022-10-16T12:11:49;98565.69;;;18.97;100.00
34586;BME280;20816;50.950;11.108;2022-10-16T12:19:18;98573.81;;;18.63;100.00
34586;BME280;20816;50.950;11.108;2022-10-16T12:21:45;98582.50;;;18.51;100.00
34586;BME280;20816;50.950;11.108;2022-10-16T12:24:37;98584.88;;;18.55;100.00
34586;BME280;20816;50.950;11.108;2022-10-16T12:27:17;98580.84;;;18.48;100.00
34586;BME280;20816;50.950;11.108;2022-10-16T12:29:55;98573.34;;;18.39;100.00
34586;BME280;20816;50.950;11.108;2022-10-16T12:32:32;98583.75;;;18.43;100.00
34586;BME280;20816;50.950;11.108;2022-10-16T12:35:22;98577.84;;;18.54;100.00
34586;BME280;20816;50.950;11.108;2022-10-16T12:37:51;98573.91;;;18.61;100.00
34586;BME280;20816;50.950;11.108;2022-10-16T12:40:30;98577.50;;;18.44;100.00
34586;BME280;20816;50.950;11.108;2022-10-16T12:42:57;98574.25;;;18.55;100.00
34586;BME280;20816;50.950;11.108;2022-10-16T12:45:33;98569.44;;;18.62;100.00
34586;BME280;20816;50.950;11.108;2022-10-16T12:48:02;98575.69;;;18.94;100.00
34586;BME280;20816;50.950;11.108;2022-10-16T12:50:35;98574.06;;;19.07;100.00
34586;BME280;20816;50.950;11.108;2022-10-16T12:53:17;98578.25;;;19.11;100.00
34586;BME280;20816;50.950;11.108;2022-10-16T12:55:52;98570.03;;;18.84;100.00
34586;BME280;20816;50.950;11.108;2022-10-16T13:01:07;98573.25;;;19.05;100.00
34586;BME280;20816;50.950;11.108;2022-10-16T13:09:33;98574.09;;;19.21;100.00
34586;BME280;20816;50.950;11.108;2022-10-16T13:12:19;98572.03;;;19.42;100.00
34586;BME280;20816;50.950;11.108;2022-10-16T13:23:35;98583.75;;;19.54;100.00
34586;BME280;20816;50.950;11.108;2022-10-16T13:26:54;98592.91;;;19.50;100.00
34586;BME280;20816;50.950;11.108;2022-10-16T13:29:01;98592.03;;;19.65;100.00
34586;BME280;20816;50.950;11.108;2022-10-16T13:31:28;98583.22;;;19.79;100.00
34586;BME280;20816;50.950;11.108;2022-10-16T13:33:58;98592.50;;;19.87;100.00
34586;BME280;20816;50.950;11.108;2022-10-16T13:36:33;98588.22;;;19.99;100.00
34586;BME280;20816;50.950;11.108;2022-10-16T13:39:10;98598.47;;;20.21;100.00
34586;BME280;20816;50.950;11.108;2022-10-16T13:41:38;98602.84;;;20.22;100.00
34586;BME280;20816;50.950;11.108;2022-10-16T13:44:05;98595.97;;;20.32;100.00
34586;BME280;20816;50.950;11.108;2022-10-16T13:46:37;98601.69;;;20.26;99.44
34586;BME280;20816;50.950;11.108;2022-10-16T13:49:10;98600.94;;;20.38;99.82
34586;BME280;20816;50.950;11.108;2022-10-16T13:51:37;98595.13;;;20.32;99.71
34586;BME280;20816;50.950;11.108;2022-10-16T13:54:04;98594.06;;;20.06;100.00
34586;BME280;20816;50.950;11.108;2022-10-16T13:56:32;98593.84;;;20.09;100.00
34586;BME280;20816;50.950;11.108;2022-10-16T13:59:04;98598.81;;;20.15;100.00
34586;BME280;20816;50.950;11.108;2022-10-16T14:01:33;98597.84;;;20.02;99.82
34586;BME280;20816;50.950;11.108;2022-10-16T14:04:09;98604.72;;;20.06;100.00
34586;BME280;20816;50.950;11.108;2022-10-16T14:06:41;98604.28;;;19.83;100.00
34586;BME280;20816;50.950;11.108;2022-10-16T14:11:48;98609.25;;;19.90;100.00
34586;BME280;20816;50.950;11.108;2022-10-16T14:14:18;98599.16;;;19.95;100.00
34586;BME280;20816;50.950;11.108;2022-10-16T14:16:45;98613.09;;;20.00;100.00